createdAt,value
2019-03-09T00:00:42.063Z,9.66
2019-03-09T00:03:13.240Z,9.58
2019-03-09T00:05:42.783Z,9.67
2019-03-09T00:08:12.302Z,9.75
2019-03-09T00:10:42.934Z,9.80
2019-03-09T00:13:13.687Z,9.86
2019-03-09T00:15:43.314Z,9.85
2019-03-09T00:18:12.857Z,9.85
2019-03-09T00:20:42.401Z,9.87
2019-03-09T00:23:30.984Z,9.95
2019-03-09T00:26:18.281Z,9.94
2019-03-09T00:28:56.219Z,9.93
2019-03-09T00:31:31.026Z,9.86
2019-03-09T00:34:00.639Z,9.90
2019-03-09T00:36:30.261Z,9.88
2019-03-09T00:38:59.819Z,9.46
2019-03-09T00:41:29.833Z,9.89
2019-03-09T00:43:59.434Z,9.87
2019-03-09T00:46:28.962Z,9.89
2019-03-09T00:48:58.500Z,9.86
2019-03-09T00:51:28.032Z,9.93
2019-03-09T00:53:57.739Z,9.84
2019-03-09T00:56:27.331Z,9.93
2019-03-09T00:58:56.847Z,9.72
2019-03-09T01:01:26.387Z,9.61
2019-03-09T01:03:55.907Z,9.97
2019-03-09T01:06:25.499Z,10.02
2019-03-09T01:08:55.022Z,9.99
2019-03-09T01:11:24.540Z,9.96
2019-03-09T01:13:55.085Z,9.97
2019-03-09T01:16:24.615Z,10.01
2019-03-09T01:18:54.131Z,9.97
2019-03-09T01:21:23.665Z,9.93
2019-03-09T01:23:53.245Z,9.93
2019-03-09T01:26:22.776Z,10.02
2019-03-09T01:28:52.287Z,10.15
2019-03-09T01:31:21.814Z,10.12
2019-03-09T01:33:51.334Z,10.06
2019-03-09T01:36:20.848Z,10.09
2019-03-09T01:38:50.367Z,10.19
2019-03-09T01:41:19.952Z,10.16
2019-03-09T01:43:49.467Z,10.15
2019-03-09T01:46:18.991Z,10.14
2019-03-09T01:48:48.490Z,10.08
2019-03-09T01:51:18.017Z,10.03
2019-03-09T01:53:47.538Z,9.91
2019-03-09T01:56:17.119Z,9.96
2019-03-09T01:58:46.624Z,9.99
2019-03-09T02:01:16.161Z,10.06
2019-03-09T02:03:45.671Z,9.95
2019-03-09T02:06:15.203Z,10.16
2019-03-09T02:08:44.745Z,10.03
2019-03-09T02:11:14.265Z,9.85
2019-03-09T02:13:43.796Z,9.80
2019-03-09T02:16:13.321Z,9.75
2019-03-09T02:18:42.855Z,9.71
2019-03-09T02:21:12.378Z,9.68
2019-03-09T02:23:41.921Z,9.68
2019-03-09T02:26:11.462Z,9.63
2019-03-09T02:28:41.001Z,9.62
2019-03-09T02:31:10.523Z,9.52
2019-03-09T02:33:40.061Z,9.50
2019-03-09T02:36:09.585Z,9.54
2019-03-09T02:38:50.205Z,9.55
2019-03-09T02:41:19.724Z,9.58
2019-03-09T02:43:49.242Z,9.55
2019-03-09T02:46:18.750Z,9.59
2019-03-09T02:48:48.293Z,9.50
2019-03-09T02:51:17.815Z,9.51
2019-03-09T02:53:47.352Z,9.52
2019-03-09T02:56:16.883Z,9.46
2019-03-09T02:58:46.402Z,9.43
2019-03-09T03:01:31.651Z,9.54
2019-03-09T03:04:01.172Z,9.56
2019-03-09T03:06:30.681Z,9.43
2019-03-09T03:09:00.209Z,9.61
2019-03-09T03:11:29.724Z,9.55
2019-03-09T03:13:59.237Z,9.43
2019-03-09T03:16:28.735Z,9.42
2019-03-09T03:18:58.263Z,9.43
2019-03-09T03:21:27.777Z,9.39
2019-03-09T03:23:57.295Z,9.22
2019-03-09T03:26:26.807Z,9.30
2019-03-09T03:28:56.330Z,9.28
2019-03-09T03:31:25.866Z,9.26
2019-03-09T03:33:55.384Z,9.30
2019-03-09T03:36:24.896Z,9.39
2019-03-09T03:38:54.411Z,9.13
2019-03-09T03:41:23.927Z,9.24
2019-03-09T03:43:53.434Z,9.19
2019-03-09T03:46:22.949Z,9.18
2019-03-09T03:48:52.466Z,9.01
2019-03-09T03:51:22.243Z,9.04
2019-03-09T03:53:51.758Z,9.12
2019-03-09T03:56:21.254Z,9.03
2019-03-09T03:58:50.758Z,9.01
2019-03-09T04:01:20.356Z,8.95
2019-03-09T04:03:49.871Z,9.01
2019-03-09T04:06:19.379Z,9.03
2019-03-09T04:08:48.897Z,9.12
2019-03-09T04:11:18.786Z,9.13
2019-03-09T04:13:48.382Z,9.11
2019-03-09T04:16:17.894Z,9.11
2019-03-09T04:18:47.481Z,9.10
2019-03-09T04:21:17.053Z,9.11
2019-03-09T04:23:46.577Z,8.93
2019-03-09T09:36:20.845Z,11.42
2019-03-09T09:38:50.488Z,11.68
2019-03-09T09:41:20.041Z,11.42
2019-03-09T09:43:49.656Z,11.41
2019-03-09T09:46:19.214Z,11.59
2019-03-09T09:48:48.770Z,11.37
2019-03-09T09:51:18.387Z,11.53
2019-03-09T09:53:47.920Z,11.59
2019-03-09T09:56:17.494Z,11.72
2019-03-09T09:58:47.029Z,11.52
2019-03-09T10:01:16.573Z,11.68
2019-03-09T10:03:48.245Z,11.76
2019-03-09T10:06:18.471Z,12.05
2019-03-09T10:08:48.167Z,11.99
2019-03-09T10:11:17.738Z,12.12
2019-03-09T10:13:47.275Z,12.22
2019-03-09T10:16:16.866Z,12.34
2019-03-09T10:18:48.414Z,12.33
2019-03-09T10:21:17.977Z,12.26
2019-03-09T10:23:48.465Z,12.15
2019-03-09T10:26:20.072Z,11.78
2019-03-09T10:28:49.611Z,12.27
2019-03-09T10:31:19.160Z,12.00
2019-03-09T10:33:48.795Z,12.39
2019-03-09T10:36:18.348Z,12.52
2019-03-09T10:38:47.940Z,12.70
2019-03-09T10:41:17.468Z,12.53
2019-03-09T10:43:47.082Z,12.16
2019-03-09T10:46:16.623Z,12.27
2019-03-09T10:48:46.172Z,12.36
2019-03-09T10:51:15.718Z,12.46
2019-03-09T10:53:45.300Z,12.52
2019-03-09T10:56:14.826Z,12.55
2019-03-09T10:58:44.361Z,12.60
2019-03-09T11:01:13.893Z,12.51
2019-03-09T11:03:43.409Z,12.84
2019-03-09T11:06:13.118Z,12.89
2019-03-09T11:08:42.660Z,13.14
2019-03-09T11:11:12.221Z,13.30
2019-03-09T11:13:51.355Z,13.26
2019-03-09T11:16:13.288Z,13.06
2019-03-09T11:18:42.819Z,13.15
2019-03-09T11:21:12.366Z,13.00
2019-03-09T11:23:42.019Z,13.10
2019-03-09T11:26:11.531Z,13.03
2019-03-09T11:28:41.071Z,12.87
2019-03-09T11:31:10.635Z,13.05
2019-03-09T11:33:40.194Z,13.14
2019-03-09T11:36:09.945Z,13.20
2019-03-09T11:38:39.532Z,13.11
2019-03-09T11:41:18.782Z,13.24
2019-03-09T11:43:40.324Z,13.74
2019-03-09T11:46:09.851Z,13.83
2019-03-09T11:48:39.389Z,13.68
2019-03-09T11:51:09.255Z,13.50
2019-03-09T11:53:38.791Z,13.28
2019-03-09T11:56:09.290Z,13.59
2019-03-09T11:58:38.904Z,13.72
2019-03-09T12:01:08.427Z,13.94
2019-03-09T12:03:37.989Z,14.05
2019-03-09T12:06:07.539Z,14.41
2019-03-09T12:08:38.091Z,14.01
2019-03-09T12:11:07.625Z,13.72
2019-03-09T12:13:37.488Z,13.75
2019-03-09T12:16:07.061Z,13.51
2019-03-09T12:18:36.607Z,13.17
2019-03-09T12:21:06.145Z,13.56
2019-03-09T12:23:35.679Z,13.67
2019-03-09T12:26:05.204Z,14.12
2019-03-09T12:28:34.746Z,13.83
2019-03-09T12:31:04.303Z,13.94
2019-03-09T12:33:33.862Z,14.17
2019-03-09T12:36:03.417Z,14.15
2019-03-09T12:38:32.943Z,13.89
2019-03-09T12:41:02.482Z,13.54
2019-03-09T12:43:32.021Z,13.45
2019-03-09T12:46:01.613Z,13.52
2019-03-09T12:48:31.144Z,13.50
2019-03-09T12:51:00.688Z,13.70
2019-03-09T12:53:30.246Z,13.76
2019-03-09T12:55:59.764Z,13.91
2019-03-09T12:58:29.296Z,14.06
2019-03-09T13:00:58.846Z,13.84
2019-03-09T13:03:28.649Z,13.55
2019-03-09T13:05:58.166Z,13.23
2019-03-09T13:08:27.713Z,13.69
2019-03-09T13:10:57.220Z,13.59
2019-03-09T13:13:26.744Z,13.31
2019-03-09T13:15:56.279Z,13.39
2019-03-09T13:18:25.808Z,12.91
2019-03-09T13:20:56.292Z,12.02
2019-03-09T13:23:25.834Z,11.52
2019-03-09T13:25:55.362Z,11.09
2019-03-09T13:28:24.894Z,10.61
2019-03-09T13:30:54.426Z,10.43
2019-03-09T13:33:23.970Z,10.42
2019-03-09T13:35:53.511Z,10.58
2019-03-09T13:38:23.056Z,10.98
2019-03-09T13:40:52.629Z,11.14
2019-03-09T13:43:22.185Z,11.11
2019-03-09T13:45:51.740Z,11.21
2019-03-09T13:48:21.288Z,11.25
2019-03-09T13:50:50.806Z,11.65
2019-03-09T13:53:20.351Z,11.57
2019-03-09T13:55:52.046Z,11.47
2019-03-09T13:58:21.153Z,11.35
2019-03-09T14:00:50.814Z,11.47
2019-03-09T14:03:20.507Z,11.39
2019-03-09T14:05:50.023Z,11.94
2019-03-09T14:08:19.561Z,11.82
2019-03-09T14:10:49.093Z,11.99
2019-03-09T14:13:18.700Z,12.24
2019-03-09T14:15:48.213Z,12.33
2019-03-09T14:18:17.761Z,12.17
2019-03-09T14:20:48.478Z,12.35
2019-03-09T14:23:18.110Z,12.18
2019-03-09T14:25:47.657Z,11.99
2019-03-09T14:28:17.252Z,11.87
2019-03-09T14:30:46.873Z,11.97
2019-03-09T14:33:16.490Z,11.94
2019-03-09T14:35:46.089Z,11.96
2019-03-09T14:38:15.606Z,12.06
2019-03-09T14:40:45.256Z,12.30
2019-03-09T14:43:14.782Z,12.50
2019-03-09T14:45:44.501Z,12.47
2019-03-09T14:48:14.319Z,12.47
2019-03-09T14:50:44.132Z,12.05
2019-03-09T14:53:13.647Z,12.13
2019-03-09T14:55:43.265Z,11.36
2019-03-09T14:58:12.812Z,11.33
2019-03-09T15:00:43.106Z,11.22
2019-03-09T15:03:12.638Z,10.66
2019-03-09T15:05:42.214Z,10.01
2019-03-09T15:08:11.812Z,10.17
2019-03-09T15:10:41.359Z,10.12
2019-03-09T15:13:10.881Z,10.16
2019-03-09T15:15:40.554Z,10.26
2019-03-09T15:18:10.199Z,10.32
2019-03-09T15:20:39.724Z,10.37
2019-03-09T15:23:09.316Z,10.59
2019-03-09T15:25:38.851Z,11.01
2019-03-09T15:28:08.368Z,10.92
2019-03-09T15:30:38.790Z,10.90
2019-03-09T15:33:08.365Z,10.70
2019-03-09T15:35:38.089Z,11.01
2019-03-09T15:38:07.704Z,10.99
2019-03-09T15:40:37.419Z,11.05
2019-03-09T15:43:07.132Z,11.08
2019-03-09T15:45:36.662Z,10.88
2019-03-09T15:48:06.196Z,10.13
2019-03-09T15:50:35.718Z,10.72
2019-03-09T15:53:05.331Z,10.43
2019-03-09T15:55:34.864Z,10.31
2019-03-09T15:58:04.568Z,10.56
2019-03-09T16:00:35.278Z,10.87
2019-03-09T16:03:05.539Z,11.44
2019-03-09T16:05:35.115Z,11.96
2019-03-09T16:08:04.719Z,11.96
2019-03-09T16:10:34.253Z,11.68
2019-03-09T16:13:03.792Z,11.51
2019-03-09T16:15:33.415Z,11.24
2019-03-09T16:18:02.965Z,10.73
2019-03-09T16:20:32.474Z,10.10
2019-03-09T16:23:01.984Z,9.89
2019-03-09T16:25:31.520Z,9.93
2019-03-09T16:28:01.041Z,9.42
2019-03-09T16:30:30.569Z,9.67
2019-03-09T16:33:00.070Z,9.07
2019-03-09T16:35:29.592Z,8.96
2019-03-09T16:37:59.139Z,8.72
2019-03-09T16:40:28.671Z,9.31
2019-03-09T16:42:58.222Z,9.17
2019-03-09T16:45:27.810Z,9.12
2019-03-09T16:47:57.386Z,9.31
2019-03-09T16:50:26.902Z,9.33
2019-03-09T16:52:56.442Z,9.19
2019-03-09T16:55:25.984Z,9.28
2019-03-09T16:57:55.515Z,9.04
2019-03-09T17:00:25.063Z,9.03
2019-03-09T17:02:54.672Z,9.27
2019-03-09T17:05:24.244Z,9.22
2019-03-09T17:07:53.770Z,9.32
2019-03-09T17:10:23.323Z,9.34
2019-03-09T17:12:52.851Z,8.99
2019-03-09T17:15:22.444Z,9.02
2019-03-09T17:17:52.032Z,8.98
2019-03-09T17:20:21.615Z,9.18
2019-03-09T17:22:51.199Z,8.89
2019-03-09T17:25:21.585Z,9.02
2019-03-09T17:27:51.101Z,9.21
2019-03-09T17:30:20.789Z,8.92
2019-03-09T17:32:50.279Z,8.78
2019-03-09T17:35:19.778Z,8.72
2019-03-09T17:37:49.302Z,8.71
2019-03-09T17:40:18.884Z,8.88
2019-03-09T17:42:48.538Z,8.82
2019-03-09T17:45:19.191Z,8.58
2019-03-09T17:47:48.812Z,8.92
2019-03-09T17:50:18.333Z,8.76
2019-03-09T17:52:47.896Z,8.79
2019-03-09T17:55:17.390Z,8.85
2019-03-09T17:57:46.924Z,8.94
2019-03-09T18:00:18.926Z,8.88
2019-03-09T18:02:48.485Z,9.05
2019-03-09T18:05:19.735Z,9.15
2019-03-09T18:07:50.253Z,9.08
2019-03-09T18:10:41.312Z,9.08
2019-03-09T18:13:10.836Z,9.05
2019-03-09T18:15:40.382Z,9.11
2019-03-09T18:18:09.915Z,9.15
2019-03-09T18:20:39.461Z,9.05
2019-03-09T18:23:09.077Z,9.27
2019-03-09T18:25:38.577Z,9.21
2019-03-09T18:28:08.113Z,8.84
2019-03-09T18:30:37.627Z,8.67
2019-03-09T18:33:07.148Z,8.95
2019-03-09T18:35:36.671Z,9.05
2019-03-09T18:38:06.176Z,8.72
2019-03-09T18:40:35.742Z,8.97
2019-03-09T18:43:05.848Z,8.73
2019-03-09T18:45:35.367Z,8.62
2019-03-09T18:48:04.990Z,8.69
2019-03-09T18:50:34.516Z,8.59
2019-03-09T18:53:04.061Z,8.89
2019-03-09T18:55:34.545Z,8.37
2019-03-09T18:58:04.081Z,8.35
2019-03-09T19:00:33.586Z,8.30
2019-03-09T19:03:03.122Z,8.46
2019-03-09T19:05:32.651Z,8.69
2019-03-09T19:08:02.172Z,8.49
2019-03-09T19:10:31.703Z,8.38
2019-03-09T19:13:01.244Z,8.61
2019-03-09T19:15:30.829Z,8.50
2019-03-09T19:18:00.438Z,8.41
2019-03-09T19:20:29.943Z,8.55
2019-03-09T19:22:59.487Z,8.59
2019-03-09T19:25:29.981Z,8.50
2019-03-09T19:27:59.528Z,8.37
2019-03-09T19:30:29.070Z,8.47
2019-03-09T19:33:00.706Z,8.36
2019-03-09T19:35:29.857Z,8.20
2019-03-09T19:37:59.398Z,8.32
2019-03-09T19:40:28.913Z,8.40
2019-03-09T19:42:58.427Z,7.98
2019-03-09T19:45:28.017Z,8.18
2019-03-09T19:47:57.539Z,8.18
2019-03-09T19:50:27.091Z,8.06
2019-03-09T19:52:58.947Z,8.04
2019-03-09T19:55:27.989Z,8.13
2019-03-09T19:57:57.506Z,8.23
2019-03-09T20:00:27.048Z,7.97
2019-03-09T20:02:56.588Z,7.80
2019-03-09T20:05:26.117Z,7.82
2019-03-09T20:07:55.636Z,7.83
2019-03-09T20:10:25.163Z,7.75
2019-03-09T20:12:54.881Z,7.88
2019-03-09T20:15:24.475Z,7.64
2019-03-09T20:17:54.006Z,7.84
2019-03-09T20:20:23.530Z,7.63
2019-03-09T20:22:53.133Z,7.82
2019-03-09T20:25:22.676Z,7.95
2019-03-09T20:27:52.181Z,7.78
2019-03-09T20:30:21.806Z,7.71
2019-03-09T20:32:51.315Z,7.86
2019-03-09T20:35:20.841Z,7.79
2019-03-09T20:37:50.385Z,8.05
2019-03-09T20:40:19.909Z,8.10
2019-03-09T20:42:49.434Z,7.82
2019-03-09T20:45:18.980Z,8.05
2019-03-09T20:47:48.490Z,7.87
2019-03-09T20:50:18.123Z,7.94
2019-03-09T20:52:47.655Z,7.81
2019-03-09T20:55:17.206Z,7.84
2019-03-09T20:57:46.770Z,7.91
2019-03-09T21:00:16.750Z,7.77
2019-03-09T21:02:46.281Z,7.72
2019-03-09T21:05:16.282Z,7.82
2019-03-09T21:07:45.945Z,7.36
2019-03-09T21:10:16.000Z,8.00
2019-03-09T21:13:10.922Z,8.09
2019-03-09T21:15:40.467Z,8.13
2019-03-09T21:18:10.035Z,8.23
2019-03-09T21:20:39.571Z,8.01
2019-03-09T21:23:09.111Z,8.06
2019-03-09T21:25:38.670Z,8.03
2019-03-09T21:28:08.216Z,8.08
2019-03-09T21:30:38.592Z,7.85
2019-03-09T21:33:08.128Z,7.98
2019-03-09T21:35:37.677Z,7.98
2019-03-09T21:38:07.224Z,7.78
2019-03-09T21:40:36.774Z,7.94
2019-03-09T21:43:06.303Z,7.88
2019-03-09T21:45:35.821Z,7.83
2019-03-09T21:48:05.348Z,7.75
2019-03-09T21:50:34.911Z,7.76
2019-03-09T21:53:04.485Z,7.87
2019-03-09T21:55:34.023Z,7.80
2019-03-09T21:58:03.551Z,7.90
2019-03-09T22:00:33.077Z,7.87
2019-03-09T22:03:02.604Z,7.84
2019-03-09T22:05:32.141Z,7.77
2019-03-09T22:08:01.672Z,8.04
2019-03-09T22:10:31.205Z,7.99
2019-03-09T22:13:00.749Z,7.87
2019-03-09T22:15:30.271Z,8.00
2019-03-09T22:17:59.804Z,7.94
2019-03-09T22:20:29.345Z,7.84
2019-03-09T22:22:59.844Z,7.94
2019-03-09T22:25:29.374Z,7.88
2019-03-09T22:27:58.893Z,7.89
2019-03-09T22:30:28.422Z,8.04
2019-03-09T22:32:57.929Z,7.95
2019-03-09T22:35:27.453Z,8.02
2019-03-09T22:37:56.981Z,8.00
2019-03-09T22:40:26.517Z,7.93
2019-03-09T22:42:56.049Z,8.05
2019-03-09T22:45:25.634Z,8.10
2019-03-09T22:47:55.170Z,8.22
2019-03-09T22:50:24.793Z,8.22
2019-03-09T22:52:55.359Z,8.17
2019-03-09T22:55:24.913Z,8.11
2019-03-09T22:57:54.453Z,8.20
2019-03-09T23:00:24.267Z,8.23
2019-03-09T23:02:55.410Z,8.13
2019-03-09T23:05:25.021Z,8.10
2019-03-09T23:07:54.548Z,8.05
2019-03-09T23:10:24.177Z,8.13
2019-03-09T23:12:53.789Z,8.14
2019-03-09T23:15:23.326Z,8.13
2019-03-09T23:17:52.867Z,8.25
2019-03-09T23:20:22.390Z,8.13
2019-03-09T23:22:52.765Z,8.25
2019-03-09T23:25:22.286Z,8.20
2019-03-09T23:27:51.798Z,8.19
2019-03-09T23:30:21.420Z,8.37
2019-03-09T23:32:50.928Z,8.32
2019-03-09T23:35:21.141Z,8.32
2019-03-09T23:37:50.733Z,8.38
2019-03-09T23:40:20.368Z,8.36
2019-03-09T23:42:49.896Z,8.52
2019-03-09T23:45:20.024Z,8.36
2019-03-09T23:47:49.584Z,8.60
2019-03-09T23:50:19.195Z,8.33
2019-03-09T23:52:48.861Z,8.61
2019-03-09T23:55:22.461Z,8.66
2019-03-09T23:57:50.094Z,8.63
